Stokmarknes, Norway

2:39 AM CEST on July 25, 2016 (GMT +0200)
Evenes | | Change Station

Elev 85 ft 68.49 °N, 16.68 °E | Updated 19 minutes ago

Overcast
Overcast
54 °F
Feels Like 54 °F
N
8
Wind Variable Wind from North

Today
High -- | Low -- °F
--% Chance of Precip.
Yesterday
High -- | Low -- °F
Precip. -- in
Pressure 30.12 in
Visibility 6.2 miles
Clouds Few 1300 ft
Overcast 1600 ft
Dew Point 52 °F
Humidity 94%
Rainfall 0.00 in
Snow Depth Not available.
2:19 AM 11:46 PM
Waning Gibbous, 71% visible
METAR ENEV 250020Z AUTO 36007KT 9999NDV FEW013/// OVC016/// 12/11 Q1020 RMK
Pressure 30.12 in
Visibility 6.2 miles
Clouds Few 1300 ft
Overcast 1600 ft
Dew Point 52 °F
Humidity 94%
Rainfall 0.00 in
Snow Depth Not available.
2:19 AM 11:46 PM
Waning Gibbous, 71% visible
METAR ENEV 250020Z AUTO 36007KT 9999NDV FEW013/// OVC016/// 12/11 Q1020 RMK

10-Day Weather Forecast

×

Almanac

Astronomy

Jul. 25, 2016 Rise Set
Actual Time
Civil Twilight
Nautical Twilight
Astronomical Twilight
Moon
Length of Visible Light
Length of Day
Tomorrow will be .
, % of the Moon is Illuminated

Today's Extremes

Country Highs Country Lows

Community

WunderPhotos

Upload Photos

1,927,214 photos uploaded!

WunderBlog® & News

Nearby

Air Quality

  Air Quality AQ Index Pollutant
Not available.

Snow Depth

Station Depth Elevation

Earthquake Activity

City Distance Mag. Time & Date
Minimum magnitude displayed is 2.5.

Coastal Water Temperatures

Place Temperature

Stations

Nearby Weather Stations

Station Location Temp. Windchill Dew Point Humidity Wind Precip. Elev Updated Type